Meteo Giornale » Osservazioni meteo Italia » Capo Bellavista

ore: 11:55 - Osservazioni Meteo Capo Bellavista
Lat. 39° 56' N Lon. 9° 43' E Alt. 138 metri s.l.m.

poco_nuvoloso Europe/Rome

28 °C

Poco Nuvoloso

Temp. 24 Ore

23 °C

34 °C

Est/Nord-Est

14.8 Km/h

Dew point 23 °C

Umidità 74 %

Visibilità  10 Km

Il sole sorge alle ore 06:04

Il sole tramonta alle ore 20:49

Data e Ora Cielo e Fenomeni T °C DP °C Um. % Pres. hPa Vis. km Vento km/h
Oggi h: 11:55 poco_nuvoloso Poco Nuvoloso 28 23 74 1014 10 E/NE 14.8
Oggi h: 10:55 sereno Sereno 29 20 58 1015 10 N 0
Oggi h: 09:55 sereno Sereno 25 20 73 1015 10 O/SO 11.1
Oggi h: 08:55 poco_nuvoloso Poco Nuvoloso 25 18 65 1014 10 N 5.5
Oggi h: 07:55 poco_nuvoloso Poco Nuvoloso 24 20 78 1014 10 NO 7.4
Oggi h: 06:55 poco_nuvoloso Poco Nuvoloso 23 20 83 1014 10 O 11.1
Oggi h: 05:55 foschia Foschia 24 22 88 1015 2 N 1.8
Oggi h: 04:55 foschia Foschia 24 22 88 1015 5 N 5.5
Oggi h: 03:55 foschia Foschia 24 22 88 1014 5 SO 13
Oggi h: 02:55 foschia Foschia 24 22 88 1014 3 SO 11.1
Oggi h: 01:55 nebbia Nebbia 25 23 88 1014 0.3 SO 9.3
Ieri h: 23:55 sereno Sereno 25 23 88 1016 10 N 1.8
Ieri h: 22:55 sereno Sereno 25 24 94 1015 10 SO 7.4
Ieri h: 21:55 sereno Sereno 26 24 88 1015 10 S/SO 11.1
Ieri h: 20:55 sereno Sereno 26 23 83 1015 10 S/SO 13
Ieri h: 19:55 sereno Sereno 28 24 78 1014 10 S 11.1
Ieri h: 18:55 sereno Sereno 29 24 74 1015 10 S 9.3
Ieri h: 17:55 sereno Sereno 29 24 74 1015 10 S 14.8
Ieri h: 16:55 poco_nuvoloso Poco Nuvoloso 30 24 70 1015 10 S 13
Ieri h: 14:55 poco_nuvoloso Poco Nuvoloso 30 23 66 1015 10 S/SE 11.1
Ieri h: 13:55 poco_nuvoloso Poco Nuvoloso 30 23 66 1015 10 S 13
Ieri h: 12:55 poco_nuvoloso Poco Nuvoloso 34 22 49 1015 10 N 3.7